Time;durP1;ratioP1;P1;durP2;ratioP2;P2;SDS_P1;SDS_P2;PMS_P1;PMS_P2;Temp;Humidity;BMP_temperature;BMP_pressure;BME280_temperature;BME280_humidity;BME280_pressure;Samples;Min_cycle;Max_cycle;Signal;HPM_P1;HPM_P2
2023/01/04 00:01:04;;;;;;;6.20;2.92;;;8.90;99.90;;;;;;5051948;28;20181;-45
2023/01/04 00:03:33;;;;;;;7.38;2.15;;;9.00;99.90;;;;;;5051412;28;20206;-45
2023/01/04 00:06:01;;;;;;;5.20;2.45;;;8.90;99.90;;;;;;5051942;28;20176;-45
2023/01/04 00:08:27;;;;;;;11.13;2.90;;;8.90;99.90;;;;;;5051386;28;20214;-45
2023/01/04 00:10:58;;;;;;;7.95;2.30;;;9.00;99.90;;;;;;5051734;28;20254;-45
2023/01/04 00:13:24;;;;;;;5.63;1.70;;;9.00;99.90;;;;;;5051865;28;20253;-45
2023/01/04 00:15:49;;;;;;;4.70;1.90;;;9.00;99.90;;;;;;5051684;28;20246;-45
2023/01/04 00:18:15;;;;;;;6.65;2.30;;;9.00;99.90;;;;;;5051808;28;20171;-45
2023/01/04 00:20:40;;;;;;;5.88;1.92;;;9.00;99.90;;;;;;5050942;28;20228;-45
2023/01/04 00:23:06;;;;;;;3.92;1.80;;;9.00;99.90;;;;;;5051417;28;20201;-45
2023/01/04 00:25:31;;;;;;;5.13;1.48;;;8.90;99.90;;;;;;5051524;28;20518;-45
2023/01/04 00:27:57;;;;;;;3.45;1.60;;;9.00;99.90;;;;;;5051479;28;20852;-45
2023/01/04 00:30:22;;;;;;;10.20;1.58;;;9.00;99.90;;;;;;5051401;28;20220;-45
2023/01/04 00:32:48;;;;;;;6.25;1.85;;;9.00;99.90;;;;;;5051466;28;20182;-45
2023/01/04 00:35:13;;;;;;;2.65;1.30;;;9.00;99.90;;;;;;5051243;28;20167;-45
2023/01/04 00:37:39;;;;;;;6.63;1.60;;;9.00;99.90;;;;;;5051275;28;20177;-45
2023/01/04 00:40:05;;;;;;;5.18;1.95;;;9.00;99.90;;;;;;5051675;28;20202;-45
2023/01/04 00:42:31;;;;;;;4.20;1.50;;;9.10;99.90;;;;;;5051038;28;20643;-46
2023/01/04 00:44:56;;;;;;;4.85;1.50;;;9.10;99.90;;;;;;5051067;28;20162;-46
2023/01/04 00:47:22;;;;;;;6.72;1.92;;;9.00;99.90;;;;;;5051122;28;20198;-46
2023/01/04 00:49:48;;;;;;;5.43;1.60;;;9.10;99.90;;;;;;5049923;28;20167;-46
2023/01/04 00:52:13;;;;;;;4.88;1.90;;;9.10;99.90;;;;;;5051305;28;20174;-46
2023/01/04 00:54:39;;;;;;;6.40;1.30;;;9.10;99.90;;;;;;5049401;28;20178;-46
2023/01/04 00:57:06;;;;;;;4.10;1.60;;;9.10;99.90;;;;;;5051513;28;20174;-46
2023/01/04 00:59:31;;;;;;;5.82;2.30;;;9.20;99.90;;;;;;5051115;28;20579;-45
2023/01/04 01:01:57;;;;;;;6.82;2.53;;;9.20;99.90;;;;;;5049740;28;20293;-45
2023/01/04 01:04:24;;;;;;;7.05;1.95;;;9.20;99.90;;;;;;5050838;28;20533;-46
2023/01/04 01:06:50;;;;;;;4.50;1.70;;;9.20;99.90;;;;;;5032859;28;20198;-45
2023/01/04 01:09:17;;;;;;;5.95;1.67;;;9.10;99.90;;;;;;5050702;28;20182;-46
2023/01/04 01:11:43;;;;;;;3.47;1.38;;;9.20;99.90;;;;;;5050722;28;20201;-47
2023/01/04 01:14:15;;;;;;;8.50;1.77;;;9.10;99.90;;;;;;5050503;28;20210;-46
2023/01/04 01:16:40;;;;;;;6.32;1.90;;;9.10;99.90;;;;;;5050644;28;20175;-45
2023/01/04 01:19:06;;;;;;;4.78;1.60;;;9.10;99.90;;;;;;5050941;28;20167;-45
2023/01/04 01:21:31;;;;;;;5.10;1.58;;;9.10;99.90;;;;;;5050581;28;20300;-46
2023/01/04 01:23:57;;;;;;;5.25;1.27;;;9.10;99.90;;;;;;5050460;28;20194;-47
2023/01/04 01:26:24;;;;;;;4.70;2.03;;;9.20;99.90;;;;;;5050573;28;20552;-46
2023/01/04 01:28:50;;;;;;;3.88;1.83;;;10.80;99.90;;;;;;5050448;28;20610;-45
2023/01/04 01:31:18;;;;;;;4.65;2.10;;;9.20;99.90;;;;;;5050426;28;20189;-45
2023/01/04 01:33:46;;;;;;;4.03;1.80;;;9.20;99.90;;;;;;5050060;28;20258;-45
2023/01/04 01:36:13;;;;;;;5.57;1.75;;;9.20;99.90;;;;;;5050300;28;20174;-45
2023/01/04 01:38:39;;;;;;;4.32;1.80;;;9.20;99.90;;;;;;5050117;28;20163;-45
2023/01/04 01:41:06;;;;;;;3.83;1.42;;;9.20;99.90;;;;;;5050625;28;20171;-45
2023/01/04 01:43:51;;;;;;;4.47;2.03;;;9.30;99.90;;;;;;5050119;28;20167;-45
2023/01/04 01:46:34;;;;;;;8.02;1.92;;;9.20;99.90;;;;;;5050237;28;20174;-45
2023/01/04 01:49:06;;;;;;;4.70;1.80;;;9.30;99.90;;;;;;5050248;28;20206;-45
2023/01/04 01:51:33;;;;;;;9.43;2.28;;;9.30;99.90;;;;;;5050126;28;20171;-45
2023/01/04 01:54:05;;;;;;;4.53;2.35;;;9.40;99.90;;;;;;5049984;28;20184;-45
2023/01/04 01:56:36;;;;;;;9.55;2.10;;;9.40;99.90;;;;;;5050020;28;20266;-45
2023/01/04 01:59:02;;;;;;;9.90;3.35;;;9.40;99.90;;;;;;5050056;28;20174;-45
2023/01/04 02:01:28;;;;;;;10.95;2.40;;;9.40;99.90;;;;;;5050032;28;20245;-45
2023/01/04 02:03:54;;;;;;;10.50;2.78;;;9.40;99.90;;;;;;5049847;28;20302;-46
2023/01/04 02:06:51;;;;;;;8.75;2.50;;;9.50;99.90;;;;;;5048645;28;20641;-45
2023/01/04 02:09:18;;;;;;;8.27;2.63;;;9.50;99.90;;;;;;5048241;28;20198;-45
2023/01/04 02:11:43;;;;;;;5.25;2.47;;;9.60;99.90;;;;;;5048617;28;20177;-45
2023/01/04 02:14:28;;;;;;;8.52;3.17;;;9.60;99.90;;;;;;5049497;28;20324;-45
2023/01/04 02:17:22;;;;;;;9.02;2.70;;;9.60;99.90;;;;;;5049911;28;20680;-45
2023/01/04 02:20:23;;;;;;;8.68;2.63;;;9.60;99.90;;;;;;5049835;28;20170;-45
2023/01/04 02:23:21;;;;;;;3.00;1.52;;;9.70;99.90;;;;;;5049892;28;20324;-45
2023/01/04 02:25:59;;;;;;;10.30;2.10;;;9.80;99.90;;;;;;5048726;28;20174;-45
2023/01/04 02:28:55;;;;;;;8.18;2.72;;;9.80;99.90;;;;;;5049586;28;20605;-45
2023/01/04 02:31:37;;;;;;;4.38;1.15;;;9.10;99.90;;;;;;5048574;28;20171;-46
2023/01/04 02:34:13;;;;;;;7.22;1.50;;;9.70;99.90;;;;;;5050034;28;20195;-46
2023/01/04 02:37:17;;;;;;;3.53;1.40;;;9.70;99.90;;;;;;5049693;28;20523;-46
2023/01/04 02:40:05;;;;;;;2.88;1.05;;;9.80;99.90;;;;;;5049572;28;20175;-45
2023/01/04 02:45:35;;;;;;;1.63;1.15;;;9.90;99.90;;;;;;5052031;28;20198;-45
2023/01/04 02:50:55;;;;;;;1.73;1.20;;;9.90;99.90;;;;;;5053610;28;20236;-45
2023/01/04 02:53:38;;;;;;;2.78;0.85;;;10.00;99.90;;;;;;5053409;28;20530;-45
2023/01/04 02:56:10;;;;;;;3.78;1.25;;;9.90;99.90;;;;;;5053495;28;20634;-45
2023/01/04 02:58:42;;;;;;;1.58;0.55;;;9.90;99.90;;;;;;5053497;28;20535;-45
2023/01/04 03:07:51;;;;;;;1.15;0.80;;;9.90;99.90;;;;;;5052714;28;20197;-46
2023/01/04 03:10:44;;;;;;;2.45;0.85;;;9.90;99.90;;;;;;5052893;28;20228;-46
2023/01/04 03:13:25;;;;;;;3.08;0.50;;;10.00;99.90;;;;;;5052992;28;20162;-45
2023/01/04 03:16:00;;;;;;;1.15;0.40;;;10.00;99.90;;;;;;5052561;28;20262;-46
2023/01/04 03:18:29;;;;;;;2.42;0.75;;;10.10;99.90;;;;;;5052867;28;20579;-45
2023/01/04 03:20:57;;;;;;;3.00;0.88;;;10.10;99.90;;;;;;5052905;28;20166;-45
2023/01/04 03:37:48;;;;;;;1.55;0.70;;;10.20;99.90;;;;;;5052940;28;20174;-45
2023/01/04 03:49:28;;;;;;;0.30;0.30;;;10.20;99.90;;;;;;5052578;28;20205;-47
2023/01/04 03:51:58;;;;;;;0.20;0.20;;;10.20;99.90;;;;;;5052244;28;20658;-45
2023/01/04 03:54:35;;;;;;;0.52;0.52;;;10.10;99.90;;;;;;5052228;28;20174;-45
2023/01/04 03:57:01;;;;;;;0.98;0.60;;;10.20;99.90;;;;;;5051812;28;20534;-46
2023/01/04 03:59:27;;;;;;;4.13;0.45;;;10.30;99.90;;;;;;5051933;28;20169;-45
2023/01/04 04:01:52;;;;;;;0.77;0.20;;;10.20;99.90;;;;;;5052219;28;20175;-45
2023/01/04 04:09:47;;;;;;;1.50;0.30;;;10.30;99.90;;;;;;5051878;28;20173;-52
2023/01/04 04:12:12;;;;;;;0.22;0.20;;;10.30;99.90;;;;;;5051912;28;20171;-45
2023/01/04 04:14:38;;;;;;;3.00;0.85;;;10.20;99.90;;;;;;5051907;28;20166;-45
2023/01/04 04:17:03;;;;;;;1.30;0.32;;;10.10;99.90;;;;;;5052248;28;20205;-45
2023/01/04 04:19:29;;;;;;;1.23;0.55;;;10.20;99.90;;;;;;5051591;28;20170;-45
2023/01/04 04:21:55;;;;;;;0.75;0.47;;;10.20;99.90;;;;;;5051794;28;20174;-45
2023/01/04 04:24:24;;;;;;;1.45;0.52;;;10.20;99.90;;;;;;5051640;28;20166;-45
2023/01/04 04:26:50;;;;;;;1.10;0.55;;;10.20;99.90;;;;;;5051614;28;20627;-45
2023/01/04 04:29:16;;;;;;;0.20;0.20;;;10.20;99.90;;;;;;5051735;28;20194;-45
2023/01/04 04:31:42;;;;;;;2.00;0.50;;;10.20;99.90;;;;;;5051359;28;20527;-45
2023/01/04 04:34:09;;;;;;;1.02;0.50;;;10.10;99.90;;;;;;5051413;28;20171;-45
2023/01/04 04:36:34;;;;;;;1.23;0.50;;;10.20;99.90;;;;;;5051750;28;20171;-45
2023/01/04 04:39:00;;;;;;;1.55;0.57;;;10.30;99.90;;;;;;5051395;28;20242;-45
2023/01/04 04:41:38;;;;;;;0.20;0.20;;;10.20;99.90;;;;;;5051192;28;20249;-45
2023/01/04 04:44:14;;;;;;;0.30;0.30;;;10.20;99.90;;;;;;5051624;28;20159;-45
2023/01/04 04:46:41;;;;;;;0.57;0.50;;;10.20;99.90;;;;;;5051085;28;20177;-45
2023/01/04 04:49:08;;;;;;;2.13;0.77;;;10.20;99.90;;;;;;5049984;28;20654;-45
2023/01/04 04:51:34;;;;;;;2.40;0.55;;;10.30;99.90;;;;;;5051374;28;20639;-45
2023/01/04 04:54:00;;;;;;;0.70;0.50;;;10.20;99.90;;;;;;5051183;28;20181;-44
2023/01/04 04:56:26;;;;;;;4.38;0.70;;;10.20;99.90;;;;;;5050932;28;20166;-45
2023/01/04 04:58:51;;;;;;;0.22;0.22;;;10.20;99.90;;;;;;5050820;28;20258;-45
2023/01/04 05:01:17;;;;;;;2.92;1.08;;;10.20;99.90;;;;;;5050967;28;20171;-45
2023/01/04 05:03:43;;;;;;;1.67;0.60;;;10.20;99.90;;;;;;5050744;28;20263;-45
2023/01/04 05:06:09;;;;;;;1.40;0.47;;;10.30;99.90;;;;;;5050686;28;20167;-45
2023/01/04 05:08:34;;;;;;;0.90;0.40;;;10.30;99.90;;;;;;5050303;28;20198;-45
2023/01/04 05:11:07;;;;;;;0.15;0.10;;;10.30;99.90;;;;;;5050699;28;20174;-46
2023/01/04 05:13:32;;;;;;;0.30;0.30;;;10.30;99.90;;;;;;5050999;28;20174;-45
2023/01/04 05:15:58;;;;;;;0.57;0.57;;;10.40;99.90;;;;;;5050721;28;20167;-45
2023/01/04 05:18:23;;;;;;;0.45;0.45;;;10.40;99.90;;;;;;5050734;28;20613;-45
2023/01/04 05:20:49;;;;;;;0.30;0.30;;;10.40;99.90;;;;;;5050810;28;20167;-45
2023/01/04 05:23:16;;;;;;;0.40;0.20;;;10.40;99.90;;;;;;5050781;28;20197;-45
2023/01/04 05:25:42;;;;;;;0.60;0.60;;;10.50;99.90;;;;;;5050543;28;20213;-45
2023/01/04 05:28:08;;;;;;;1.30;0.55;;;10.60;99.90;;;;;;5050352;28;20233;-45
2023/01/04 05:30:49;;;;;;;0.40;0.40;;;10.50;99.90;;;;;;5050821;28;20178;-45
2023/01/04 05:33:19;;;;;;;0.55;0.38;;;10.60;99.90;;;;;;5050380;28;20167;-45
2023/01/04 05:35:45;;;;;;;0.47;0.40;;;10.50;99.90;;;;;;5050416;28;20202;-45
2023/01/04 05:38:11;;;;;;;0.32;0.32;;;10.60;99.90;;;;;;5050315;28;20257;-45
2023/01/04 05:40:37;;;;;;;0.43;0.40;;;10.70;99.90;;;;;;5050209;28;20198;-45
2023/01/04 05:43:02;;;;;;;0.30;0.22;;;10.70;99.90;;;;;;5050520;28;20522;-45
2023/01/04 05:45:28;;;;;;;1.13;0.30;;;10.80;99.90;;;;;;5050134;28;20174;-45
2023/01/04 05:47:54;;;;;;;0.70;0.63;;;10.80;99.90;;;;;;5050068;28;20194;-45
2023/01/04 05:50:21;;;;;;;0.10;0.10;;;10.80;99.90;;;;;;5050104;28;20239;-45
2023/01/04 05:52:48;;;;;;;0.17;0.17;;;10.80;99.90;;;;;;5049860;28;20236;-44
2023/01/04 05:55:13;;;;;;;0.20;0.20;;;10.80;99.90;;;;;;5050303;28;20312;-45
2023/01/04 05:57:39;;;;;;;0.47;0.47;;;10.80;99.90;;;;;;5050043;28;20604;-45
2023/01/04 06:00:07;;;;;;;0.20;0.20;;;10.80;99.90;;;;;;5050678;28;20704;-45
2023/01/04 06:02:33;;;;;;;0.93;0.70;;;10.80;99.90;;;;;;5050246;28;20260;-45
2023/01/04 06:05:01;;;;;;;0.65;0.10;;;10.80;99.90;;;;;;5049868;28;20171;-45
2023/01/04 06:07:28;;;;;;;1.85;0.68;;;10.80;99.90;;;;;;5049810;28;20210;-45
2023/01/04 06:09:53;;;;;;;2.33;0.30;;;10.80;99.90;;;;;;5049815;28;20179;-45
2023/01/04 06:12:19;;;;;;;0.30;0.30;;;10.80;99.90;;;;;;5049938;28;20253;-45
2023/01/04 06:14:45;;;;;;;1.20;0.20;;;10.80;99.90;;;;;;5049783;28;20177;-45
2023/01/04 06:17:10;;;;;;;0.43;0.30;;;10.90;99.90;;;;;;5049803;28;20167;-45
2023/01/04 06:19:36;;;;;;;0.45;0.35;;;10.90;99.90;;;;;;5052342;28;20202;-45
2023/01/04 06:22:02;;;;;;;0.13;0.13;;;10.90;99.90;;;;;;5054346;28;20166;-46
2023/01/04 06:24:27;;;;;;;0.93;0.52;;;10.90;99.90;;;;;;5053833;28;20261;-46
2023/01/04 06:26:53;;;;;;;3.30;0.38;;;10.90;99.90;;;;;;5053780;28;20198;-46
2023/01/04 06:29:18;;;;;;;1.02;0.40;;;11.00;99.90;;;;;;5053745;28;20178;-46
2023/01/04 06:31:44;;;;;;;0.80;0.20;;;11.10;99.90;;;;;;5053642;28;20177;-45
2023/01/04 06:34:11;;;;;;;0.90;0.20;;;11.10;99.90;;;;;;5053723;28;20529;-46
2023/01/04 06:36:37;;;;;;;1.73;0.32;;;11.10;99.90;;;;;;5053582;28;20212;-45
2023/01/04 06:39:02;;;;;;;1.13;0.82;;;11.10;99.90;;;;;;5054246;28;20202;-46
2023/01/04 06:41:28;;;;;;;0.40;0.40;;;11.10;99.90;;;;;;5053527;28;20562;-45
2023/01/04 06:43:54;;;;;;;2.33;0.70;;;11.10;99.90;;;;;;5053484;28;20175;-46
2023/01/04 06:46:19;;;;;;;0.17;0.17;;;11.10;99.90;;;;;;5053566;28;20171;-45
2023/01/04 06:48:45;;;;;;;2.13;0.55;;;11.20;99.90;;;;;;5053234;28;20206;-45
2023/01/04 06:51:11;;;;;;;2.35;0.60;;;11.20;99.90;;;;;;5052102;28;20232;-46
2023/01/04 06:53:36;;;;;;;1.55;0.65;;;11.20;99.90;;;;;;5053338;28;20669;-45
2023/01/04 06:56:02;;;;;;;1.00;0.32;;;11.20;99.90;;;;;;5053398;28;20174;-45
2023/01/04 06:58:27;;;;;;;1.92;0.32;;;11.40;99.90;;;;;;5053287;28;20166;-45
2023/01/04 07:00:54;;;;;;;0.30;0.28;;;11.20;99.90;;;;;;5053121;28;20177;-45
2023/01/04 07:03:20;;;;;;;3.47;0.52;;;11.30;99.90;;;;;;5051632;28;20268;-46
2023/01/04 07:05:46;;;;;;;0.32;0.32;;;11.30;99.90;;;;;;5051926;28;20201;-45
2023/01/04 07:08:13;;;;;;;0.38;0.38;;;11.30;99.90;;;;;;5052943;28;20224;-46
2023/01/04 07:10:40;;;;;;;0.45;0.30;;;11.30;99.90;;;;;;5052912;28;20638;-46
2023/01/04 07:13:06;;;;;;;0.63;0.17;;;11.20;99.90;;;;;;5053675;28;20202;-46
2023/01/04 07:15:31;;;;;;;0.10;0.10;;;11.30;99.90;;;;;;5053480;28;20213;-45
2023/01/04 07:17:57;;;;;;;0.17;0.17;;;11.30;99.90;;;;;;5052838;28;20186;-46
2023/01/04 07:20:22;;;;;;;0.20;0.20;;;11.30;99.90;;;;;;5052833;28;20175;-46
2023/01/04 07:22:48;;;;;;;1.15;0.57;;;11.30;99.90;;;;;;5052614;28;20253;-45
2023/01/04 07:25:14;;;;;;;0.28;0.28;;;11.40;99.90;;;;;;5052923;28;20170;-45
2023/01/04 07:27:39;;;;;;;0.25;0.25;;;11.40;99.90;;;;;;5052496;28;20218;-45
2023/01/04 07:30:05;;;;;;;0.10;0.05;;;11.40;99.90;;;;;;5052302;28;20181;-45
2023/01/04 07:32:31;;;;;;;2.17;0.80;;;11.40;99.90;;;;;;5052893;28;20162;-45
2023/01/04 07:34:57;;;;;;;0.17;0.17;;;11.40;99.90;;;;;;5052761;28;20568;-45
2023/01/04 07:37:22;;;;;;;0.20;0.20;;;11.40;99.90;;;;;;5052794;28;20618;-45
2023/01/04 07:39:48;;;;;;;0.88;0.30;;;11.40;99.90;;;;;;5052093;28;20174;-45
2023/01/04 07:42:14;;;;;;;0.20;0.20;;;11.40;99.90;;;;;;5052480;28;20281;-46
2023/01/04 07:44:39;;;;;;;7.72;0.50;;;11.40;99.90;;;;;;5052274;28;20296;-45
2023/01/04 07:47:05;;;;;;;4.95;0.47;;;11.40;99.90;;;;;;5052823;28;20198;-45
2023/01/04 07:49:31;;;;;;;0.38;0.13;;;12.80;99.90;;;;;;5052709;28;20267;-45
2023/01/04 07:51:56;;;;;;;1.73;0.50;;;11.40;99.90;;;;;;5052001;28;20535;-45
2023/01/04 07:54:23;;;;;;;4.53;0.85;;;11.40;99.90;;;;;;5052208;28;20590;-46
2023/01/04 07:56:49;;;;;;;1.55;0.30;;;11.40;99.90;;;;;;5051788;28;20196;-45
2023/01/04 07:59:16;;;;;;;0.10;0.10;;;11.30;99.90;;;;;;5052032;28;20179;-45
2023/01/04 08:01:42;;;;;;;0.75;0.45;;;11.40;99.90;;;;;;5052051;28;20166;-45
2023/01/04 08:04:11;;;;;;;0.28;0.28;;;11.40;99.90;;;;;;5050634;28;20229;-44
2023/01/04 08:06:37;;;;;;;0.40;0.40;;;11.40;99.90;;;;;;5051717;28;20186;-45
2023/01/04 08:09:04;;;;;;;0.45;0.40;;;11.30;99.90;;;;;;5052099;28;20199;-45
2023/01/04 08:11:29;;;;;;;0.35;0.35;;;11.30;99.90;;;;;;5051933;28;20171;-45
2023/01/04 08:13:55;;;;;;;0.70;0.57;;;11.40;99.90;;;;;;5051696;28;20221;-45
2023/01/04 08:16:23;;;;;;;1.30;0.40;;;11.40;99.90;;;;;;5051830;28;20171;-45
2023/01/04 08:18:53;;;;;;;0.77;0.77;;;11.40;99.90;;;;;;5051396;28;20538;-45
2023/01/04 08:21:19;;;;;;;0.75;0.75;;;11.40;99.90;;;;;;5051650;28;20171;-44
2023/01/04 08:23:45;;;;;;;1.65;0.55;;;11.40;99.90;;;;;;5051073;28;20186;-45
2023/01/04 08:26:13;;;;;;;0.40;0.40;;;11.40;99.90;;;;;;5051476;28;20167;-45
2023/01/04 08:28:39;;;;;;;1.25;0.65;;;11.50;99.90;;;;;;5050252;28;20701;-45
2023/01/04 08:31:11;;;;;;;4.95;0.55;;;11.40;99.90;;;;;;5050523;28;20171;-45
2023/01/04 08:33:38;;;;;;;0.80;0.32;;;11.40;99.90;;;;;;5051257;28;20179;-45
2023/01/04 08:36:19;;;;;;;0.30;0.30;;;11.50;99.90;;;;;;5051614;28;20166;-45
2023/01/04 08:38:49;;;;;;;0.70;0.60;;;11.50;99.90;;;;;;5051333;28;20163;-45
2023/01/04 08:41:15;;;;;;;0.45;0.45;;;11.50;99.90;;;;;;5049686;28;20182;-45
2023/01/04 08:43:41;;;;;;;0.77;0.52;;;11.50;99.90;;;;;;5050182;28;20173;-45
2023/01/04 08:46:07;;;;;;;1.77;0.77;;;11.60;99.90;;;;;;5051182;28;20542;-44
2023/01/04 08:48:33;;;;;;;1.40;0.65;;;11.60;99.90;;;;;;5050310;28;20434;-45
2023/01/04 08:51:05;;;;;;;0.60;0.60;;;11.60;99.90;;;;;;5051253;28;20177;-45
2023/01/04 08:53:31;;;;;;;0.90;0.50;;;11.70;99.90;;;;;;5051062;28;20162;-45
2023/01/04 08:56:00;;;;;;;1.83;0.80;;;11.70;99.90;;;;;;5050737;28;20179;-45
2023/01/04 08:58:27;;;;;;;0.55;0.47;;;11.70;99.90;;;;;;5051205;28;20187;-45
2023/01/04 09:00:53;;;;;;;0.38;0.38;;;11.80;99.90;;;;;;5049730;28;20170;-44
2023/01/04 09:03:29;;;;;;;1.55;0.43;;;11.80;99.90;;;;;;5087411;28;21085;-44
2023/01/04 09:06:12;;;;;;;0.35;0.35;;;11.80;99.90;;;;;;5087530;28;20243;-45
2023/01/04 09:08:39;;;;;;;0.47;0.47;;;11.80;99.90;;;;;;5087381;28;20672;-47
2023/01/04 09:11:07;;;;;;;0.65;0.28;;;11.80;99.90;;;;;;5087590;28;20165;-44
2023/01/04 09:13:36;;;;;;;1.08;0.75;;;11.90;99.90;;;;;;5087983;28;20196;-44
2023/01/04 09:16:06;;;;;;;0.73;0.40;;;11.90;99.90;;;;;;5088099;28;20184;-44
2023/01/04 09:18:32;;;;;;;0.65;0.40;;;11.90;99.90;;;;;;5087754;28;20157;-44
2023/01/04 09:21:00;;;;;;;0.73;0.50;;;11.90;99.90;;;;;;5087338;28;20263;-44
2023/01/04 09:23:27;;;;;;;4.50;0.80;;;12.00;99.90;;;;;;5087155;28;20166;-44
2023/01/04 09:25:53;;;;;;;1.75;0.57;;;12.00;99.90;;;;;;5087239;28;20575;-44
2023/01/04 09:28:19;;;;;;;2.10;0.55;;;12.00;99.90;;;;;;5087369;28;20165;-44
2023/01/04 09:30:44;;;;;;;2.45;0.98;;;12.00;99.90;;;;;;5086772;28;20245;-45
2023/01/04 09:33:10;;;;;;;0.80;0.50;;;12.00;99.90;;;;;;5087042;28;20659;-45
2023/01/04 09:35:35;;;;;;;0.80;0.80;;;12.10;99.90;;;;;;5087248;28;20200;-44
2023/01/04 09:38:01;;;;;;;0.77;0.38;;;10.60;99.90;;;;;;5087438;28;20200;-44
2023/01/04 09:40:32;;;;;;;2.33;0.40;;;12.10;99.90;;;;;;5087007;28;20177;-45
2023/01/04 09:43:01;;;;;;;2.85;0.70;;;12.10;99.90;;;;;;5087104;28;20205;-45
2023/01/04 09:45:27;;;;;;;1.35;0.65;;;12.10;99.90;;;;;;5086902;28;20161;-45
2023/01/04 09:47:59;;;;;;;0.93;0.77;;;12.10;99.90;;;;;;5086914;28;20302;-45
2023/01/04 09:50:30;;;;;;;3.53;1.00;;;12.10;99.90;;;;;;5086613;28;20660;-45
2023/01/04 09:53:10;;;;;;;3.20;0.77;;;12.10;99.90;;;;;;5086648;28;20169;-44
2023/01/04 09:55:41;;;;;;;0.50;0.50;;;12.10;99.90;;;;;;5086810;28;20638;-44
2023/01/04 09:58:26;;;;;;;1.85;0.77;;;12.10;99.90;;;;;;5086207;28;20695;-45
2023/01/04 10:01:05;;;;;;;0.80;0.80;;;13.50;99.90;;;;;;5086621;28;20678;-45
2023/01/04 10:03:34;;;;;;;3.30;0.60;;;12.10;99.90;;;;;;5086571;28;20201;-45
2023/01/04 10:06:00;;;;;;;0.40;0.40;;;12.00;99.90;;;;;;5086693;28;20165;-45
2023/01/04 10:08:26;;;;;;;6.63;1.13;;;12.00;99.90;;;;;;5085018;28;20173;-45
2023/01/04 10:11:22;;;;;;;1.95;0.60;;;12.10;99.90;;;;;;5086267;28;20173;-45
2023/01/04 10:13:50;;;;;;;1.45;0.60;;;12.10;99.90;;;;;;5078460;28;20174;-47
2023/01/04 10:16:46;;;;;;;0.40;0.40;;;12.00;99.90;;;;;;5072861;28;20158;-48
2023/01/04 10:19:51;;;;;;;0.40;0.30;;;12.00;99.90;;;;;;5072789;28;20269;-46
2023/01/04 10:22:35;;;;;;;0.38;0.38;;;12.10;99.90;;;;;;5072782;28;20284;-47
2023/01/04 10:25:22;;;;;;;0.52;0.50;;;12.00;99.90;;;;;;5072570;28;20170;-45
2023/01/04 10:28:10;;;;;;;0.25;0.25;;;11.90;99.90;;;;;;5073200;28;20166;-46
2023/01/04 10:30:44;;;;;;;0.95;0.85;;;11.90;99.90;;;;;;5073987;28;20174;-44
2023/01/04 10:33:18;;;;;;;0.40;0.40;;;11.90;99.90;;;;;;5073987;28;20173;-45
2023/01/04 10:35:44;;;;;;;1.08;0.60;;;11.90;99.90;;;;;;5073606;28;20162;-45
2023/01/04 10:38:16;;;;;;;2.08;0.50;;;11.90;99.90;;;;;;5073734;28;20170;-45
2023/01/04 10:40:44;;;;;;;0.68;0.47;;;11.80;99.90;;;;;;5074155;28;20180;-45
2023/01/04 10:43:35;;;;;;;1.00;0.55;;;11.80;99.90;;;;;;5073439;28;20292;-44
2023/01/04 10:46:04;;;;;;;3.35;1.83;;;11.90;99.90;;;;;;5074017;28;20513;-45
2023/01/04 10:49:18;;;;;;;0.50;0.50;;;11.90;99.90;;;;;;5073740;28;20676;-45
2023/01/04 10:51:52;;;;;;;1.30;0.70;;;11.90;99.90;;;;;;5054153;28;20601;-45
2023/01/04 10:54:32;;;;;;;2.17;0.77;;;11.90;99.90;;;;;;5073340;28;20170;-44
2023/01/04 10:57:11;;;;;;;1.60;0.77;;;11.90;99.90;;;;;;5073282;28;20170;-45
2023/01/04 10:59:59;;;;;;;6.65;1.60;;;11.90;99.90;;;;;;5073486;28;20270;-44
2023/01/04 11:02:25;;;;;;;4.28;1.00;;;11.90;99.90;;;;;;5073071;28;20245;-44
2023/01/04 11:05:06;;;;;;;0.90;0.90;;;11.90;99.90;;;;;;5073347;28;20300;-45
2023/01/04 11:07:48;;;;;;;1.48;0.98;;;12.00;99.90;;;;;;5074027;28;20167;-45
2023/01/04 11:10:21;;;;;;;1.98;0.75;;;12.00;99.90;;;;;;5073191;28;20503;-46
2023/01/04 11:12:47;;;;;;;0.98;0.63;;;12.00;99.90;;;;;;5073027;28;20166;-46
2023/01/04 11:15:12;;;;;;;1.55;0.50;;;12.00;99.90;;;;;;5073199;28;20245;-44
2023/01/04 11:17:40;;;;;;;2.92;0.80;;;12.00;99.90;;;;;;5072986;28;20633;-44
2023/01/04 11:20:06;;;;;;;0.70;0.70;;;12.10;99.90;;;;;;5073583;28;20166;-45
2023/01/04 11:22:57;;;;;;;4.18;0.80;;;12.10;99.90;;;;;;5073381;28;20209;-45
2023/01/04 11:25:24;;;;;;;0.98;0.80;;;12.10;99.90;;;;;;5072220;28;20166;-45
2023/01/04 11:27:55;;;;;;;2.17;0.80;;;12.20;99.90;;;;;;5072460;28;20988;-45
2023/01/04 11:30:23;;;;;;;0.93;0.80;;;12.10;99.90;;;;;;5072939;28;20202;-45
2023/01/04 11:33:12;;;;;;;1.92;1.00;;;12.20;99.90;;;;;;5072756;28;20247;-45
2023/01/04 11:35:41;;;;;;;0.50;0.50;;;12.20;99.90;;;;;;5072835;28;20165;-45
2023/01/04 11:38:28;;;;;;;0.95;0.73;;;12.20;99.90;;;;;;5072807;28;20208;-45
2023/01/04 11:41:01;;;;;;;1.55;0.65;;;12.20;99.90;;;;;;5072588;28;20174;-45
2023/01/04 11:43:32;;;;;;;1.63;0.52;;;12.20;99.90;;;;;;5072887;28;20206;-45
2023/01/04 11:46:02;;;;;;;0.38;0.38;;;12.20;99.90;;;;;;5072932;28;20174;-45
2023/01/04 11:48:34;;;;;;;2.20;0.80;;;12.20;99.90;;;;;;5072562;28;20204;-46
2023/01/04 11:51:00;;;;;;;0.55;0.43;;;12.20;99.90;;;;;;5072573;28;20177;-45
2023/01/04 11:53:35;;;;;;;1.25;0.85;;;12.20;99.90;;;;;;5072251;28;20166;-45
2023/01/04 11:56:20;;;;;;;1.65;0.70;;;12.20;99.90;;;;;;5072693;28;20161;-45
2023/01/04 11:59:05;;;;;;;0.70;0.70;;;12.20;99.90;;;;;;5072355;28;20181;-45
2023/01/04 12:01:36;;;;;;;1.83;1.27;;;12.20;99.90;;;;;;5072636;28;20317;-45
2023/01/04 12:04:08;;;;;;;0.98;0.82;;;12.30;99.90;;;;;;5072555;28;20170;-45
2023/01/04 12:06:41;;;;;;;0.17;0.17;;;12.30;99.90;;;;;;5072766;28;20679;-45
2023/01/04 12:09:13;;;;;;;1.88;1.23;;;12.30;99.90;;;;;;5072271;28;20169;-45
2023/01/04 12:11:43;;;;;;;1.00;0.63;;;12.20;99.90;;;;;;5072138;28;20162;-45
2023/01/04 12:14:21;;;;;;;0.73;0.57;;;12.30;99.90;;;;;;5071985;28;20215;-45
2023/01/04 12:17:10;;;;;;;0.80;0.80;;;12.30;99.90;;;;;;5072105;28;20176;-45
2023/01/04 12:19:39;;;;;;;1.20;1.02;;;12.30;99.90;;;;;;5072063;28;20638;-45
2023/01/04 12:22:23;;;;;;;1.40;0.82;;;12.30;99.90;;;;;;5072222;28;20206;-45
2023/01/04 12:24:49;;;;;;;0.63;0.38;;;12.30;99.90;;;;;;5072039;28;20173;-45
2023/01/04 12:27:16;;;;;;;0.80;0.40;;;12.30;99.90;;;;;;5072119;28;20256;-45
2023/01/04 12:29:55;;;;;;;0.75;0.75;;;12.30;99.90;;;;;;5072154;28;20174;-45
2023/01/04 12:32:26;;;;;;;0.57;0.40;;;12.30;99.90;;;;;;5071859;28;20648;-45
2023/01/04 12:34:53;;;;;;;0.50;0.50;;;12.30;99.90;;;;;;5071901;28;20212;-45
2023/01/04 12:37:37;;;;;;;0.40;0.40;;;12.30;99.90;;;;;;5071630;28;20215;-45
2023/01/04 12:40:41;;;;;;;0.73;0.55;;;12.30;99.90;;;;;;5072242;28;20168;-45
2023/01/04 12:43:24;;;;;;;1.67;1.13;;;12.30;99.90;;;;;;5055906;28;20221;-45
2023/01/04 12:49:25;;;;;;;0.32;0.32;;;12.30;99.90;;;;;;5071782;28;20181;-45
2023/01/04 12:52:12;;;;;;;0.28;0.28;;;12.30;99.90;;;;;;5071796;28;20628;-45
2023/01/04 12:54:51;;;;;;;1.17;0.57;;;12.30;99.90;;;;;;5051032;28;20190;-45
2023/01/04 12:57:17;;;;;;;0.32;0.32;;;12.20;99.90;;;;;;5071649;28;20227;-45
2023/01/04 12:59:56;;;;;;;0.38;0.30;;;12.20;99.90;;;;;;5071699;28;20174;-45
2023/01/04 13:02:26;;;;;;;0.25;0.03;;;12.20;99.90;;;;;;5071352;28;20205;-45
2023/01/04 13:05:32;;;;;;;0.32;0.32;;;12.20;99.90;;;;;;5071819;28;20517;-45
2023/01/04 13:07:59;;;;;;;1.00;0.40;;;12.10;99.90;;;;;;5068477;28;20182;-46
2023/01/04 13:10:41;;;;;;;0.13;0.13;;;12.20;99.90;;;;;;5071514;28;20170;-47
2023/01/04 13:13:25;;;;;;;0.73;0.30;;;12.20;99.90;;;;;;5071475;28;20657;-46
2023/01/04 13:16:06;;;;;;;0.10;0.10;;;12.10;99.90;;;;;;5071521;28;20547;-46
2023/01/04 13:18:51;;;;;;;0.40;0.25;;;12.20;99.90;;;;;;5071730;28;20637;-46
2023/01/04 13:21:27;;;;;;;0.40;0.40;;;12.20;99.90;;;;;;5071350;28;20162;-47
2023/01/04 13:24:01;;;;;;;0.20;0.13;;;12.20;99.90;;;;;;5071363;28;20162;-46
2023/01/04 13:26:47;;;;;;;0.10;0.10;;;12.10;99.90;;;;;;5071369;28;20239;-47
2023/01/04 13:29:26;;;;;;;0.43;0.20;;;12.20;99.90;;;;;;5071262;28;20170;-46
2023/01/04 13:32:08;;;;;;;3.05;0.47;;;12.20;99.90;;;;;;5071210;28;20256;-46
2023/01/04 13:34:36;;;;;;;0.00;0.00;;;12.20;99.90;;;;;;5071683;28;20162;-46
2023/01/04 13:37:12;;;;;;;0.80;0.20;;;12.20;99.90;;;;;;5071925;28;20174;-47
2023/01/04 13:39:47;;;;;;;0.15;0.15;;;12.20;99.90;;;;;;5071563;28;20260;-46
2023/01/04 13:42:27;;;;;;;1.55;0.20;;;12.20;99.90;;;;;;5071214;28;20271;-46
2023/01/04 13:45:22;;;;;;;0.10;0.10;;;12.20;99.90;;;;;;5071223;28;20173;-46
2023/01/04 13:47:50;;;;;;;0.10;0.10;;;12.30;99.90;;;;;;5071105;28;20216;-46
2023/01/04 13:50:35;;;;;;;0.10;0.10;;;12.30;99.90;;;;;;5075136;28;20194;-46
2023/01/04 13:53:03;;;;;;;0.17;0.17;;;12.30;99.90;;;;;;5075125;28;20571;-47